createdAt,value
2018-03-08T00:00:17.540Z,91.00
2018-03-08T00:02:44.852Z,90.90
2018-03-08T00:05:11.251Z,90.70
2018-03-08T00:07:37.618Z,90.80
2018-03-08T00:10:04.015Z,90.80
2018-03-08T00:12:30.500Z,90.80
2018-03-08T00:14:56.880Z,90.30
2018-03-08T00:17:23.288Z,90.50
2018-03-08T00:19:50.407Z,90.70
2018-03-08T00:22:16.813Z,90.70
2018-03-08T00:24:43.220Z,90.70
2018-03-08T00:27:09.658Z,90.50
2018-03-08T00:29:36.053Z,90.40
2018-03-08T00:35:02.780Z,90.60
2018-03-08T00:37:29.179Z,91.10
2018-03-08T00:39:55.575Z,91.70
2018-03-08T00:42:21.962Z,91.20
2018-03-08T00:44:48.423Z,91.10
2018-03-08T00:47:14.841Z,90.80
2018-03-08T00:49:41.244Z,90.70
2018-03-08T00:52:07.649Z,90.90
2018-03-08T00:54:34.861Z,90.70
2018-03-08T00:57:01.243Z,90.70
2018-03-08T00:59:27.686Z,90.70
2018-03-08T01:01:54.823Z,90.20
2018-03-08T01:04:21.974Z,90.20
2018-03-08T01:06:49.102Z,90.20
2018-03-08T01:09:15.491Z,90.20
2018-03-08T01:11:41.957Z,90.30
2018-03-08T01:14:08.436Z,90.30
2018-03-08T01:16:34.899Z,90.30
2018-03-08T01:19:01.297Z,90.20
2018-03-08T01:21:27.695Z,90.10
2018-03-08T01:23:54.094Z,90.30
2018-03-08T01:26:20.498Z,90.50
2018-03-08T01:28:46.908Z,90.70
2018-03-08T01:31:14.048Z,90.70
2018-03-08T01:33:40.431Z,90.70
2018-03-08T01:36:19.160Z,91.50
2018-03-08T01:38:45.563Z,91.60
2018-03-08T01:41:11.970Z,91.30
2018-03-08T01:43:39.128Z,91.40
2018-03-08T01:46:06.419Z,91.30
2018-03-08T01:48:32.799Z,91.30
2018-03-08T01:50:59.956Z,90.60
2018-03-08T01:53:27.104Z,90.50
2018-03-08T01:55:54.233Z,90.30
2018-03-08T01:58:20.620Z,90.30
2018-03-08T02:00:47.063Z,90.40
2018-03-08T02:03:13.447Z,90.40
2018-03-08T02:05:39.836Z,90.40
2018-03-08T02:08:06.241Z,90.10
2018-03-08T02:10:32.607Z,90.10
2018-03-08T02:12:59.002Z,90.00
2018-03-08T02:15:25.460Z,90.00
2018-03-08T02:17:51.869Z,90.10
2018-03-08T02:20:18.335Z,90.00
2018-03-08T02:22:44.751Z,90.10
2018-03-08T02:25:11.167Z,89.70
2018-03-08T02:27:37.539Z,90.30
2018-03-08T02:30:03.932Z,90.10
2018-03-08T02:32:30.333Z,90.10
2018-03-08T02:34:57.508Z,90.70
2018-03-08T02:37:23.917Z,90.70
2018-03-08T02:39:51.026Z,91.40
2018-03-08T02:42:18.149Z,91.40
2018-03-08T02:44:44.595Z,91.40
2018-03-08T02:47:11.114Z,91.20
2018-03-08T02:49:37.512Z,91.60
2018-03-08T02:52:04.663Z,90.80
2018-03-08T02:54:31.799Z,90.50
2018-03-08T02:56:58.199Z,90.50
2018-03-08T02:59:24.575Z,90.50
2018-03-08T03:01:50.945Z,90.60
2018-03-08T03:04:17.336Z,90.50
2018-03-08T03:06:44.486Z,91.10
2018-03-08T03:09:10.869Z,91.10
2018-03-08T03:11:37.278Z,90.90
2018-03-08T03:14:03.727Z,90.80
2018-03-08T03:16:30.294Z,90.60
2018-03-08T03:18:56.685Z,90.60
2018-03-08T03:21:23.120Z,90.50
2018-03-08T03:23:49.508Z,90.90
2018-03-08T03:26:15.960Z,90.70
2018-03-08T03:28:42.355Z,90.20
2018-03-08T03:31:09.488Z,89.80
2018-03-08T03:33:35.875Z,89.70
2018-03-08T03:36:02.315Z,90.40
2018-03-08T03:38:29.464Z,89.70
2018-03-08T03:40:56.579Z,89.10
2018-03-08T03:43:23.066Z,89.10
2018-03-08T03:45:49.462Z,88.20
2018-03-08T03:48:15.827Z,88.30
2018-03-08T03:50:42.224Z,88.60
2018-03-08T03:53:09.360Z,89.00
2018-03-08T03:55:35.868Z,88.80
2018-03-08T03:58:02.311Z,88.20
2018-03-08T04:00:28.685Z,88.70
2018-03-08T04:02:55.830Z,89.20
2018-03-08T04:05:22.274Z,89.10
2018-03-08T04:07:49.409Z,89.40
2018-03-08T04:10:16.557Z,88.80
2018-03-08T04:12:42.937Z,88.70
2018-03-08T04:15:09.308Z,88.30
2018-03-08T04:17:35.796Z,88.10
2018-03-08T04:20:02.220Z,88.20
2018-03-08T04:22:28.628Z,87.90
2018-03-08T04:24:55.768Z,87.60
2018-03-08T04:27:23.183Z,87.20
2018-03-08T04:29:49.585Z,87.20
2018-03-08T04:32:15.980Z,86.80
2018-03-08T04:34:43.151Z,87.50
2018-03-08T04:37:10.342Z,87.30
2018-03-08T04:39:36.733Z,87.30
2018-03-08T04:42:03.867Z,86.90
2018-03-08T04:44:31.779Z,87.00
2018-03-08T04:46:58.169Z,86.90
2018-03-08T04:49:25.348Z,88.00
2018-03-08T04:51:51.851Z,88.00
2018-03-08T04:54:18.268Z,88.10
2018-03-08T04:56:44.676Z,88.50
2018-03-08T04:59:11.081Z,88.60
2018-03-08T05:01:37.487Z,88.60
2018-03-08T05:04:04.709Z,88.20
2018-03-08T05:06:31.098Z,88.10
2018-03-08T05:08:57.487Z,87.90
2018-03-08T05:11:23.905Z,87.50
2018-03-08T05:13:50.298Z,88.00
2018-03-08T05:16:16.732Z,88.40
2018-03-08T05:18:43.141Z,87.90
2018-03-08T05:21:10.258Z,89.00
2018-03-08T05:23:36.709Z,89.00
2018-03-08T05:26:03.869Z,89.60
2018-03-08T05:28:30.989Z,89.70
2018-03-08T05:30:57.408Z,89.60
2018-03-08T05:33:23.880Z,90.00
2018-03-08T05:35:51.009Z,89.90
2018-03-08T05:38:17.402Z,89.90
2018-03-08T05:40:43.803Z,90.10
2018-03-08T05:43:10.951Z,89.90
2018-03-08T05:45:38.088Z,89.50
2018-03-08T05:48:05.233Z,89.40
2018-03-08T05:50:31.612Z,89.40
2018-03-08T05:52:58.044Z,89.20
2018-03-08T05:55:24.444Z,89.20
2018-03-08T05:57:51.583Z,88.30
2018-03-08T06:00:18.776Z,88.60
2018-03-08T06:02:45.164Z,88.50
2018-03-08T06:05:12.295Z,88.30
2018-03-08T06:07:38.747Z,88.30
2018-03-08T06:10:05.918Z,88.60
2018-03-08T06:12:32.330Z,88.60
2018-03-08T06:14:58.699Z,87.90
2018-03-08T06:17:25.155Z,88.30
2018-03-08T06:19:51.573Z,88.40
2018-03-08T06:22:18.017Z,88.20
2018-03-08T06:24:45.219Z,88.20
2018-03-08T06:27:11.645Z,88.10
2018-03-08T06:29:38.778Z,87.80
2018-03-08T06:32:05.179Z,87.80
2018-03-08T06:34:31.609Z,87.90
2018-03-08T06:36:58.104Z,87.70
2018-03-08T06:39:24.548Z,86.90
2018-03-08T06:41:50.939Z,86.20
2018-03-08T06:44:17.341Z,85.70
2018-03-08T06:46:43.728Z,85.60
2018-03-08T06:49:10.892Z,84.70
2018-03-08T06:51:37.314Z,84.70
2018-03-08T06:54:04.505Z,85.00
2018-03-08T06:56:30.961Z,85.00
2018-03-08T06:58:57.352Z,82.60
2018-03-08T07:01:23.733Z,81.80
2018-03-08T07:03:50.165Z,80.20
2018-03-08T07:06:18.095Z,78.20
2018-03-08T07:08:44.527Z,78.20
2018-03-08T07:11:11.222Z,77.70
2018-03-08T07:13:38.477Z,75.60
2018-03-08T07:16:06.338Z,73.80
2018-03-08T07:18:32.715Z,73.80
2018-03-08T07:20:59.107Z,71.80
2018-03-08T07:23:25.501Z,70.50
2018-03-08T07:25:51.885Z,69.80
2018-03-08T07:28:19.119Z,67.90
2018-03-08T07:30:46.303Z,69.20
2018-03-08T07:33:12.740Z,69.20
2018-03-08T07:35:39.152Z,69.40
2018-03-08T07:38:06.287Z,70.70
2018-03-08T07:40:32.705Z,70.70
2018-03-08T07:42:59.087Z,72.80
2018-03-08T07:45:25.534Z,71.30
2018-03-08T07:47:51.987Z,70.70
2018-03-08T07:50:18.375Z,70.40
2018-03-08T07:52:45.513Z,71.00
2018-03-08T07:55:12.648Z,68.20
2018-03-08T07:57:39.149Z,68.10
2018-03-08T08:00:05.537Z,69.10
2018-03-08T08:02:32.658Z,68.20
2018-03-08T08:05:12.761Z,68.20
2018-03-08T08:07:52.263Z,69.30
2018-03-08T08:10:19.411Z,70.90
2018-03-08T08:12:45.779Z,70.90
2018-03-08T08:15:12.219Z,71.30
2018-03-08T08:17:38.625Z,71.00
2018-03-08T08:20:05.757Z,69.30
2018-03-08T08:22:32.908Z,68.70
2018-03-08T08:25:00.054Z,68.20
2018-03-08T08:27:26.455Z,68.10
2018-03-08T08:29:52.900Z,69.70
2018-03-08T08:32:20.078Z,68.60
2018-03-08T08:34:47.258Z,69.40
2018-03-08T08:37:13.700Z,69.40
2018-03-08T08:39:40.082Z,69.50
2018-03-08T08:42:06.513Z,69.00
2018-03-08T08:44:33.686Z,66.20
2018-03-08T08:47:00.087Z,66.10
2018-03-08T08:49:28.074Z,63.10
2018-03-08T08:51:54.479Z,63.10
2018-03-08T08:54:20.944Z,63.40
2018-03-08T08:56:47.376Z,61.50
2018-03-08T08:59:14.526Z,61.90
2018-03-08T09:01:41.646Z,63.50
2018-03-08T09:04:08.079Z,63.60
2018-03-08T09:06:34.497Z,62.50
2018-03-08T09:09:00.902Z,62.70
2018-03-08T09:11:27.299Z,64.00
2018-03-08T09:13:54.420Z,60.70
2018-03-08T09:16:20.813Z,60.40
2018-03-08T09:18:47.250Z,58.20
2018-03-08T09:21:13.895Z,59.10
2018-03-08T09:23:40.340Z,59.40
2018-03-08T09:26:06.768Z,59.40
2018-03-08T09:28:33.151Z,58.60
2018-03-08T09:30:59.622Z,54.60
2018-03-08T09:33:26.057Z,57.00
2018-03-08T09:35:52.515Z,57.10
2018-03-08T09:38:18.944Z,55.40
2018-03-08T09:40:45.382Z,58.90
2018-03-08T09:43:11.784Z,54.90
2018-03-08T09:45:38.211Z,55.10
2018-03-08T09:48:04.616Z,53.70
2018-03-08T09:50:31.814Z,57.60
2018-03-08T09:52:58.226Z,57.60
2018-03-08T09:55:24.631Z,55.00
2018-03-08T09:57:51.760Z,53.60
2018-03-08T10:00:18.178Z,53.60
2018-03-08T10:02:44.592Z,53.70
2018-03-08T10:05:11.000Z,51.90
2018-03-08T10:07:37.451Z,50.00
2018-03-08T10:10:03.876Z,52.60
2018-03-08T10:12:30.305Z,51.20
2018-03-08T10:14:56.740Z,51.80
2018-03-08T10:17:23.212Z,52.70
2018-03-08T10:19:49.581Z,53.10
2018-03-08T10:22:16.757Z,52.60
2018-03-08T10:24:43.184Z,52.60
2018-03-08T10:27:09.630Z,52.00
2018-03-08T10:29:36.023Z,51.40
2018-03-08T10:32:03.304Z,50.00
2018-03-08T10:34:29.745Z,50.00
2018-03-08T10:36:56.195Z,50.30
2018-03-08T10:41:49.793Z,49.70
2018-03-08T10:44:16.177Z,49.70
2018-03-08T10:46:43.341Z,53.10
2018-03-08T10:49:09.765Z,53.10
2018-03-08T10:51:36.164Z,51.80
2018-03-08T10:54:02.650Z,52.40
2018-03-08T10:56:29.055Z,52.60
2018-03-08T10:58:56.181Z,53.10
2018-03-08T11:01:25.500Z,53.10
2018-03-08T11:03:54.549Z,53.00
2018-03-08T11:06:27.039Z,53.00
2018-03-08T11:08:53.453Z,52.40
2018-03-08T11:11:19.896Z,52.50
2018-03-08T11:13:46.268Z,52.00
2018-03-08T11:16:13.454Z,52.70
2018-03-08T11:18:39.831Z,52.70
2018-03-08T11:21:06.204Z,51.80
2018-03-08T11:23:32.580Z,52.20
2018-03-08T11:25:58.987Z,52.20
2018-03-08T11:28:25.379Z,51.00
2018-03-08T11:30:52.472Z,51.10
2018-03-08T11:33:18.840Z,51.10
2018-03-08T11:35:45.979Z,50.40
2018-03-08T11:38:14.040Z,48.60
2018-03-08T11:40:40.912Z,48.70
2018-03-08T11:43:06.013Z,50.00
2018-03-08T11:45:33.183Z,44.90
2018-03-08T11:47:59.576Z,44.90
2018-03-08T11:50:25.962Z,44.10
2018-03-08T11:52:52.368Z,44.50
2018-03-08T11:55:19.480Z,43.10
2018-03-08T11:57:45.865Z,43.00
2018-03-08T12:00:12.291Z,42.60
2018-03-08T12:02:38.652Z,41.80
2018-03-08T12:05:05.050Z,42.50
2018-03-08T12:07:32.185Z,41.30
2018-03-08T12:09:59.299Z,42.00
2018-03-08T12:12:25.692Z,42.60
2018-03-08T12:14:52.068Z,42.80
2018-03-08T12:17:18.462Z,42.50
2018-03-08T12:19:44.862Z,42.70
2018-03-08T12:22:11.271Z,45.00
2018-03-08T12:24:37.635Z,45.20
2018-03-08T12:27:04.773Z,47.30
2018-03-08T12:29:31.161Z,47.20
2018-03-08T12:31:57.603Z,46.30
2018-03-08T12:34:23.980Z,47.70
2018-03-08T12:36:51.151Z,47.60
2018-03-08T12:39:17.583Z,47.60
2018-03-08T12:41:44.046Z,47.40
2018-03-08T12:44:10.453Z,49.20
2018-03-08T12:46:36.881Z,48.50
2018-03-08T12:49:03.310Z,47.60
2018-03-08T12:51:29.692Z,48.30
2018-03-08T12:53:56.088Z,47.70
2018-03-08T12:56:22.486Z,48.10
2018-03-08T12:58:48.854Z,49.90
2018-03-08T13:01:15.256Z,48.30
2018-03-08T13:03:42.395Z,48.70
2018-03-08T13:06:09.552Z,49.50
2018-03-08T13:08:36.695Z,48.70
2018-03-08T13:11:03.850Z,49.10
2018-03-08T13:13:31.051Z,50.70
2018-03-08T13:15:58.273Z,50.70
2018-03-08T13:18:25.389Z,51.10
2018-03-08T13:20:51.794Z,51.10
2018-03-08T13:23:18.241Z,51.00
2018-03-08T13:25:44.683Z,52.50
2018-03-08T13:28:11.075Z,52.60
2018-03-08T13:30:37.526Z,53.20
2018-03-08T13:33:03.969Z,52.90
2018-03-08T13:35:31.305Z,53.50
2018-03-08T13:37:57.754Z,52.20
2018-03-08T13:40:25.654Z,51.90
2018-03-08T13:42:52.808Z,51.40
2018-03-08T13:45:20.032Z,51.90
2018-03-08T13:47:46.427Z,51.90
2018-03-08T13:50:12.820Z,53.60
2018-03-08T13:52:39.969Z,50.70
2018-03-08T13:55:06.366Z,50.60
2018-03-08T13:57:32.772Z,52.20
2018-03-08T13:59:59.159Z,50.60
2018-03-08T14:02:26.313Z,51.10
2018-03-08T14:04:52.713Z,50.60
2018-03-08T14:07:19.206Z,50.40
2018-03-08T14:09:45.619Z,49.40
2018-03-08T14:12:12.824Z,46.90
2018-03-08T14:14:39.277Z,46.90
2018-03-08T14:17:05.700Z,47.20
2018-03-08T14:19:32.968Z,46.10
2018-03-08T14:21:59.378Z,47.20
2018-03-08T14:24:25.750Z,47.50
2018-03-08T14:26:52.913Z,47.30
2018-03-08T14:29:20.032Z,48.00
2018-03-08T14:31:46.411Z,48.00
2018-03-08T14:34:12.803Z,48.90
2018-03-08T14:36:39.947Z,47.40
2018-03-08T14:39:06.341Z,47.40
2018-03-08T14:41:33.387Z,47.50
2018-03-08T14:43:59.797Z,48.90
2018-03-08T14:46:26.200Z,49.70
2018-03-08T14:48:52.623Z,48.20
2018-03-08T14:51:19.023Z,49.30
2018-03-08T14:53:45.398Z,48.00
2018-03-08T14:56:11.795Z,46.70
2018-03-08T14:58:38.347Z,46.90
2018-03-08T15:01:04.774Z,45.70
2018-03-08T15:03:31.191Z,45.50
2018-03-08T15:05:57.608Z,46.90
2018-03-08T15:08:24.004Z,46.60
2018-03-08T15:10:51.164Z,46.20
2018-03-08T15:13:18.300Z,46.60
2018-03-08T15:15:44.673Z,46.50
2018-03-08T15:18:11.062Z,46.50
2018-03-08T15:20:37.444Z,46.50
2018-03-08T15:23:04.883Z,48.20
2018-03-08T15:25:31.380Z,48.60
2018-03-08T15:27:58.550Z,48.20
2018-03-08T15:30:25.710Z,48.80
2018-03-08T15:32:52.101Z,48.70
2018-03-08T15:35:18.488Z,49.00
2018-03-08T15:37:45.015Z,48.10
2018-03-08T15:40:11.390Z,48.40
2018-03-08T15:42:37.806Z,49.20
2018-03-08T15:45:04.212Z,49.80
2018-03-08T15:47:30.656Z,49.00
2018-03-08T15:49:57.824Z,48.50
2018-03-08T15:52:24.260Z,48.50
2018-03-08T15:54:50.671Z,48.30
2018-03-08T15:57:17.813Z,48.30
2018-03-08T15:59:44.266Z,48.20
2018-03-08T16:02:11.426Z,48.30
2018-03-08T16:04:38.103Z,48.60
2018-03-08T16:07:19.495Z,49.80
2018-03-08T16:09:58.624Z,49.60
2018-03-08T16:12:25.768Z,50.20
2018-03-08T16:14:52.335Z,49.70
2018-03-08T16:17:18.872Z,50.00
2018-03-08T16:19:45.347Z,50.60
2018-03-08T16:22:11.837Z,50.40
2018-03-08T16:24:38.307Z,50.60
2018-03-08T16:27:04.846Z,51.50
2018-03-08T16:29:33.492Z,51.60
2018-03-08T16:31:59.881Z,51.60
2018-03-08T16:34:27.736Z,51.70
2018-03-08T16:36:54.736Z,51.60
2018-03-08T16:39:21.880Z,52.40
2018-03-08T16:41:49.012Z,54.80
2018-03-08T16:44:16.143Z,56.30
2018-03-08T16:46:43.275Z,57.30
2018-03-08T16:49:09.691Z,57.30
2018-03-08T16:51:36.063Z,58.60
2018-03-08T16:54:02.470Z,58.80
2018-03-08T16:56:28.869Z,59.70
2018-03-08T16:58:55.467Z,60.40
2018-03-08T17:01:22.778Z,60.40
2018-03-08T17:03:49.163Z,60.40
2018-03-08T17:06:15.619Z,61.50
2018-03-08T17:08:42.023Z,62.10
2018-03-08T17:11:09.896Z,63.70
2018-03-08T17:13:37.029Z,65.50
2018-03-08T17:16:03.438Z,65.40
2018-03-08T17:18:29.831Z,66.10
2018-03-08T17:20:56.236Z,66.90
2018-03-08T17:23:23.692Z,66.40
2018-03-08T17:25:50.115Z,66.30
2018-03-08T17:28:16.519Z,67.60
2018-03-08T17:30:43.875Z,67.40
2018-03-08T17:33:10.270Z,69.80
2018-03-08T17:35:36.673Z,70.50
2018-03-08T17:38:03.836Z,72.70
2018-03-08T17:40:30.992Z,74.10
2018-03-08T17:42:58.113Z,73.80
2018-03-08T17:45:24.516Z,73.70
2018-03-08T17:47:50.918Z,73.90
2018-03-08T17:50:17.304Z,73.50
2018-03-08T17:52:43.710Z,73.10
2018-03-08T17:55:10.119Z,73.00
2018-03-08T17:57:36.515Z,72.80
2018-03-08T18:00:04.437Z,72.40
2018-03-08T18:02:30.868Z,72.40
2018-03-08T18:04:57.251Z,73.40
2018-03-08T18:07:24.459Z,75.00
2018-03-08T18:09:50.835Z,74.10
2018-03-08T18:12:17.959Z,75.70
2018-03-08T18:14:44.361Z,75.60
2018-03-08T18:17:10.765Z,74.80
2018-03-08T18:19:37.179Z,74.70
2018-03-08T18:22:03.552Z,75.40
2018-03-08T18:24:29.944Z,75.90
2018-03-08T18:26:57.085Z,76.70
2018-03-08T18:29:23.487Z,76.70
2018-03-08T18:31:50.019Z,76.70
2018-03-08T18:34:16.447Z,78.00
2018-03-08T18:36:42.833Z,77.50
2018-03-08T18:39:09.972Z,78.10
2018-03-08T18:41:37.154Z,79.00
2018-03-08T18:44:04.372Z,79.00
2018-03-08T18:46:30.770Z,80.00
2018-03-08T18:48:57.187Z,79.70
2018-03-08T18:51:23.571Z,80.30
2018-03-08T18:53:49.964Z,79.60
2018-03-08T18:56:16.359Z,79.70
2018-03-08T18:58:43.884Z,80.80
2018-03-08T19:01:10.283Z,80.80
2018-03-08T19:03:36.688Z,82.10
2018-03-08T19:06:03.117Z,80.60
2018-03-08T19:08:29.482Z,80.90
2018-03-08T19:10:55.902Z,81.20
2018-03-08T19:13:22.372Z,82.20
2018-03-08T19:15:48.907Z,82.30
2018-03-08T19:18:15.303Z,81.90
2018-03-08T19:20:41.717Z,82.10
2018-03-08T19:23:08.136Z,81.30
2018-03-08T19:25:35.238Z,82.60
2018-03-08T19:28:01.785Z,82.60
2018-03-08T19:30:28.167Z,82.90
2018-03-08T19:32:54.572Z,82.90
2018-03-08T19:35:21.732Z,83.80
2018-03-08T19:37:48.880Z,83.30
2018-03-08T19:40:16.007Z,82.50
2018-03-08T19:42:42.411Z,82.50
2018-03-08T19:45:08.780Z,83.00
2018-03-08T19:47:35.351Z,82.40
2018-03-08T19:50:01.751Z,82.40
2018-03-08T19:52:28.145Z,82.60
2018-03-08T19:54:54.543Z,82.20
2018-03-08T19:57:20.930Z,83.70
2018-03-08T19:59:47.354Z,84.30
2018-03-08T20:02:13.769Z,84.40
2018-03-08T20:04:40.154Z,84.20
2018-03-08T20:07:07.333Z,83.80
2018-03-08T20:09:33.760Z,84.40
2018-03-08T20:12:00.150Z,83.50
2018-03-08T20:14:26.580Z,84.80
2018-03-08T20:16:53.063Z,85.50
2018-03-08T20:19:19.489Z,85.70
2018-03-08T20:21:45.881Z,85.50
2018-03-08T20:24:12.278Z,85.30
2018-03-08T20:26:38.680Z,85.80
2018-03-08T20:29:05.809Z,85.10
2018-03-08T20:31:32.942Z,84.90
2018-03-08T20:34:00.903Z,85.50
2018-03-08T20:36:27.378Z,85.40
2018-03-08T20:38:53.767Z,85.70
2018-03-08T20:41:20.214Z,85.90
2018-03-08T20:43:47.377Z,86.20
2018-03-08T20:46:13.803Z,86.20
2018-03-08T20:48:40.174Z,85.90
2018-03-08T20:51:06.599Z,86.30
2018-03-08T20:53:32.979Z,85.10
2018-03-08T20:55:59.398Z,84.70
2018-03-08T20:58:25.799Z,84.10
2018-03-08T21:00:52.175Z,84.10
2018-03-08T21:03:18.582Z,83.70
2018-03-08T21:05:44.985Z,84.20
2018-03-08T21:08:11.392Z,84.60
2018-03-08T21:10:38.524Z,84.90
2018-03-08T21:13:04.944Z,84.80
2018-03-08T21:15:31.387Z,85.10
2018-03-08T21:17:57.784Z,84.10
2018-03-08T21:20:24.205Z,84.10
2018-03-08T21:22:50.720Z,85.70
2018-03-08T21:25:17.900Z,86.30
2018-03-08T21:27:45.042Z,86.30
2018-03-08T21:30:11.462Z,86.20
2018-03-08T21:32:37.906Z,85.80
2018-03-08T21:35:04.467Z,85.40
2018-03-08T21:37:30.872Z,84.70
2018-03-08T21:39:57.340Z,84.90
2018-03-08T21:42:23.743Z,85.00
2018-03-08T21:44:50.138Z,84.70
2018-03-08T21:47:17.285Z,85.30
2018-03-08T21:49:43.695Z,85.30
2018-03-08T21:52:10.090Z,86.10
2018-03-08T21:54:36.512Z,85.20
2018-03-08T21:57:04.543Z,85.40
2018-03-08T21:59:31.690Z,85.80
2018-03-08T22:01:58.081Z,85.80
2018-03-08T22:04:24.499Z,85.50
2018-03-08T22:06:50.910Z,85.50
2018-03-08T22:09:18.113Z,87.10
2018-03-08T22:11:44.511Z,87.10
2018-03-08T22:14:10.920Z,86.40
2018-03-08T22:16:38.053Z,86.50
2018-03-08T22:19:04.459Z,86.50
2018-03-08T22:21:31.718Z,85.80
2018-03-08T22:23:58.122Z,85.80
2018-03-08T22:26:24.522Z,85.70
2018-03-08T22:28:51.715Z,85.20
2018-03-08T22:31:18.129Z,85.20
2018-03-08T22:33:44.564Z,85.60
2018-03-08T22:36:11.058Z,85.40
2018-03-08T22:38:38.251Z,85.90
2018-03-08T22:41:04.810Z,85.90
2018-03-08T22:43:31.226Z,85.60
2018-03-08T22:45:57.699Z,85.60
2018-03-08T22:48:24.124Z,86.00
2018-03-08T22:50:50.477Z,85.80
2018-03-08T22:53:16.880Z,86.30
2018-03-08T22:55:43.272Z,85.80
2018-03-08T22:58:09.671Z,86.50
2018-03-08T23:00:36.059Z,86.20
2018-03-08T23:03:08.644Z,86.90
2018-03-08T23:05:35.046Z,86.20
2018-03-08T23:08:01.451Z,86.50
2018-03-08T23:10:28.584Z,86.30
2018-03-08T23:12:55.736Z,85.90
2018-03-08T23:15:22.177Z,85.90
2018-03-08T23:17:49.330Z,85.50
2018-03-08T23:20:16.483Z,85.60
2018-03-08T23:22:43.608Z,85.30
2018-03-08T23:25:10.016Z,85.20
2018-03-08T23:27:36.423Z,86.60
2018-03-08T23:30:02.954Z,86.60
2018-03-08T23:32:29.395Z,88.50
2018-03-08T23:34:55.798Z,89.40
2018-03-08T23:37:22.976Z,88.20
2018-03-08T23:39:49.447Z,88.20
2018-03-08T23:42:15.872Z,86.80
2018-03-08T23:44:42.262Z,88.00
2018-03-08T23:47:09.658Z,87.60
2018-03-08T23:49:36.082Z,86.80
2018-03-08T23:52:02.646Z,86.70
2018-03-08T23:54:29.061Z,87.20
2018-03-08T23:56:55.468Z,87.90
2018-03-08T23:59:21.868Z,88.90
